sensor_id;sensor_type;location;lat;lon;timestamp;temperature;humidity
78514;SHT31;67814;51.976;5.810;2023-04-16T00:02:06;10.9;73.1
78514;SHT31;67814;51.976;5.810;2023-04-16T00:04:35;10.9;73.1
78514;SHT31;67814;51.976;5.810;2023-04-16T00:07:07;11.0;73.2
78514;SHT31;67814;51.976;5.810;2023-04-16T00:09:36;11.0;73.2
78514;SHT31;67814;51.976;5.810;2023-04-16T00:12:09;10.9;73.4
78514;SHT31;67814;51.976;5.810;2023-04-16T00:14:41;10.9;73.6
78514;SHT31;67814;51.976;5.810;2023-04-16T00:17:13;10.9;73.7
78514;SHT31;67814;51.976;5.810;2023-04-16T00:19:45;11.0;73.7
78514;SHT31;67814;51.976;5.810;2023-04-16T00:22:14;11.0;73.8
78514;SHT31;67814;51.976;5.810;2023-04-16T00:24:44;11.0;73.8
78514;SHT31;67814;51.976;5.810;2023-04-16T00:27:17;11.0;73.9
78514;SHT31;67814;51.976;5.810;2023-04-16T00:29:47;11.0;74.0
78514;SHT31;67814;51.976;5.810;2023-04-16T00:32:17;11.0;74.1
78514;SHT31;67814;51.976;5.810;2023-04-16T00:34:47;11.0;74.1
78514;SHT31;67814;51.976;5.810;2023-04-16T00:37:16;11.0;74.2
78514;SHT31;67814;51.976;5.810;2023-04-16T00:39:46;11.0;74.5
78514;SHT31;67814;51.976;5.810;2023-04-16T00:42:15;10.9;74.5
78514;SHT31;67814;51.976;5.810;2023-04-16T00:44:45;10.9;74.7
78514;SHT31;67814;51.976;5.810;2023-04-16T00:47:15;10.9;74.7
78514;SHT31;67814;51.976;5.810;2023-04-16T00:49:45;10.9;74.9
78514;SHT31;67814;51.976;5.810;2023-04-16T00:52:15;10.9;75.0
78514;SHT31;67814;51.976;5.810;2023-04-16T00:54:45;10.9;75.1
78514;SHT31;67814;51.976;5.810;2023-04-16T00:57:16;10.9;75.3
78514;SHT31;67814;51.976;5.810;2023-04-16T00:59:47;10.9;75.3
78514;SHT31;67814;51.976;5.810;2023-04-16T01:02:17;10.9;75.2
78514;SHT31;67814;51.976;5.810;2023-04-16T01:04:47;10.9;75.1
78514;SHT31;67814;51.976;5.810;2023-04-16T01:07:16;10.9;75.2
78514;SHT31;67814;51.976;5.810;2023-04-16T01:09:46;10.9;75.3
78514;SHT31;67814;51.976;5.810;2023-04-16T01:12:15;10.8;75.6
78514;SHT31;67814;51.976;5.810;2023-04-16T01:14:46;10.8;75.6
78514;SHT31;67814;51.976;5.810;2023-04-16T01:17:15;10.9;75.6
78514;SHT31;67814;51.976;5.810;2023-04-16T01:19:45;10.9;75.6
78514;SHT31;67814;51.976;5.810;2023-04-16T01:22:14;10.9;75.6
78514;SHT31;67814;51.976;5.810;2023-04-16T01:24:44;10.9;75.4
78514;SHT31;67814;51.976;5.810;2023-04-16T01:27:14;10.9;75.4
78514;SHT31;67814;51.976;5.810;2023-04-16T01:29:43;10.9;75.5
78514;SHT31;67814;51.976;5.810;2023-04-16T01:32:13;10.9;75.6
78514;SHT31;67814;51.976;5.810;2023-04-16T01:34:42;10.9;75.5
78514;SHT31;67814;51.976;5.810;2023-04-16T01:37:16;10.9;75.6
78514;SHT31;67814;51.976;5.810;2023-04-16T01:39:46;10.9;75.5
78514;SHT31;67814;51.976;5.810;2023-04-16T01:42:15;10.9;75.4
78514;SHT31;67814;51.976;5.810;2023-04-16T01:44:46;11.0;75.5
78514;SHT31;67814;51.976;5.810;2023-04-16T01:47:15;11.0;75.4
78514;SHT31;67814;51.976;5.810;2023-04-16T01:49:45;11.0;75.2
78514;SHT31;67814;51.976;5.810;2023-04-16T01:52:15;11.0;75.2
78514;SHT31;67814;51.976;5.810;2023-04-16T01:54:44;11.0;75.0
78514;SHT31;67814;51.976;5.810;2023-04-16T01:57:14;11.0;75.1
78514;SHT31;67814;51.976;5.810;2023-04-16T01:59:43;11.0;75.1
78514;SHT31;67814;51.976;5.810;2023-04-16T02:02:14;11.0;75.2
78514;SHT31;67814;51.976;5.810;2023-04-16T02:04:45;11.0;75.2
78514;SHT31;67814;51.976;5.810;2023-04-16T02:07:14;11.0;75.2
78514;SHT31;67814;51.976;5.810;2023-04-16T02:09:44;11.0;75.1
78514;SHT31;67814;51.976;5.810;2023-04-16T02:12:13;11.0;75.0
78514;SHT31;67814;51.976;5.810;2023-04-16T02:14:45;11.0;74.9
78514;SHT31;67814;51.976;5.810;2023-04-16T02:17:15;11.0;75.0
78514;SHT31;67814;51.976;5.810;2023-04-16T02:19:44;11.1;74.9
78514;SHT31;67814;51.976;5.810;2023-04-16T02:22:14;11.1;74.9
78514;SHT31;67814;51.976;5.810;2023-04-16T02:24:44;11.1;74.8
78514;SHT31;67814;51.976;5.810;2023-04-16T02:27:13;11.1;74.8
78514;SHT31;67814;51.976;5.810;2023-04-16T02:29:43;11.1;74.8
78514;SHT31;67814;51.976;5.810;2023-04-16T02:32:13;11.1;74.7
78514;SHT31;67814;51.976;5.810;2023-04-16T02:34:42;11.1;74.7
78514;SHT31;67814;51.976;5.810;2023-04-16T02:37:12;11.2;74.6
78514;SHT31;67814;51.976;5.810;2023-04-16T02:39:42;11.1;74.7
78514;SHT31;67814;51.976;5.810;2023-04-16T02:42:13;11.1;74.8
78514;SHT31;67814;51.976;5.810;2023-04-16T02:44:44;11.1;74.8
78514;SHT31;67814;51.976;5.810;2023-04-16T02:47:13;11.2;74.8
78514;SHT31;67814;51.976;5.810;2023-04-16T02:49:43;11.2;74.7
78514;SHT31;67814;51.976;5.810;2023-04-16T02:52:12;11.2;74.7
78514;SHT31;67814;51.976;5.810;2023-04-16T02:54:42;11.1;74.8
78514;SHT31;67814;51.976;5.810;2023-04-16T02:57:11;11.1;74.8
78514;SHT31;67814;51.976;5.810;2023-04-16T02:59:41;11.1;75.0
78514;SHT31;67814;51.976;5.810;2023-04-16T03:02:10;11.1;75.0
78514;SHT31;67814;51.976;5.810;2023-04-16T03:04:40;11.1;75.0
78514;SHT31;67814;51.976;5.810;2023-04-16T03:07:10;11.2;74.9
78514;SHT31;67814;51.976;5.810;2023-04-16T03:09:40;11.2;74.7
78514;SHT31;67814;51.976;5.810;2023-04-16T03:12:09;11.2;74.7
78514;SHT31;67814;51.976;5.810;2023-04-16T03:14:39;11.2;74.6
78514;SHT31;67814;51.976;5.810;2023-04-16T03:17:08;11.2;74.6
78514;SHT31;67814;51.976;5.810;2023-04-16T03:19:38;11.2;74.6
78514;SHT31;67814;51.976;5.810;2023-04-16T03:22:09;11.2;74.7
78514;SHT31;67814;51.976;5.810;2023-04-16T03:24:39;11.3;74.7
78514;SHT31;67814;51.976;5.810;2023-04-16T03:27:09;11.3;74.7
78514;SHT31;67814;51.976;5.810;2023-04-16T03:29:40;11.3;74.7
78514;SHT31;67814;51.976;5.810;2023-04-16T03:32:10;11.3;74.6
78514;SHT31;67814;51.976;5.810;2023-04-16T03:34:42;11.3;74.6
78514;SHT31;67814;51.976;5.810;2023-04-16T03:37:11;11.3;74.6
78514;SHT31;67814;51.976;5.810;2023-04-16T03:39:43;11.3;74.6
78514;SHT31;67814;51.976;5.810;2023-04-16T03:42:13;11.3;74.5
78514;SHT31;67814;51.976;5.810;2023-04-16T03:44:43;11.3;74.6
78514;SHT31;67814;51.976;5.810;2023-04-16T03:47:13;11.4;74.6
78514;SHT31;67814;51.976;5.810;2023-04-16T03:49:42;11.4;74.4
78514;SHT31;67814;51.976;5.810;2023-04-16T03:52:12;11.4;74.2
78514;SHT31;67814;51.976;5.810;2023-04-16T03:54:42;11.4;74.1
78514;SHT31;67814;51.976;5.810;2023-04-16T03:57:11;11.4;74.0
78514;SHT31;67814;51.976;5.810;2023-04-16T03:59:41;11.4;74.1
78514;SHT31;67814;51.976;5.810;2023-04-16T04:02:11;11.4;74.1
78514;SHT31;67814;51.976;5.810;2023-04-16T04:04:40;11.4;74.1
78514;SHT31;67814;51.976;5.810;2023-04-16T04:07:10;11.4;74.2
78514;SHT31;67814;51.976;5.810;2023-04-16T04:09:39;11.4;74.4
78514;SHT31;67814;51.976;5.810;2023-04-16T04:12:09;11.4;74.5
78514;SHT31;67814;51.976;5.810;2023-04-16T04:14:38;11.4;74.6
78514;SHT31;67814;51.976;5.810;2023-04-16T04:17:08;11.4;74.6
78514;SHT31;67814;51.976;5.810;2023-04-16T04:19:37;11.4;74.7
78514;SHT31;67814;51.976;5.810;2023-04-16T04:22:07;11.4;74.6
78514;SHT31;67814;51.976;5.810;2023-04-16T04:24:36;11.4;74.5
78514;SHT31;67814;51.976;5.810;2023-04-16T04:27:06;11.4;74.4
78514;SHT31;67814;51.976;5.810;2023-04-16T04:29:35;11.4;74.4
78514;SHT31;67814;51.976;5.810;2023-04-16T04:32:05;11.4;74.5
78514;SHT31;67814;51.976;5.810;2023-04-16T04:34:34;11.4;74.7
78514;SHT31;67814;51.976;5.810;2023-04-16T04:37:04;11.3;74.9
78514;SHT31;67814;51.976;5.810;2023-04-16T04:39:34;11.3;75.0
78514;SHT31;67814;51.976;5.810;2023-04-16T04:42:03;11.3;75.3
78514;SHT31;67814;51.976;5.810;2023-04-16T04:44:33;11.3;75.4
78514;SHT31;67814;51.976;5.810;2023-04-16T04:47:02;11.2;75.6
78514;SHT31;67814;51.976;5.810;2023-04-16T04:49:34;11.2;75.6
78514;SHT31;67814;51.976;5.810;2023-04-16T04:52:04;11.2;75.6
78514;SHT31;67814;51.976;5.810;2023-04-16T04:54:34;11.2;75.7
78514;SHT31;67814;51.976;5.810;2023-04-16T04:57:07;11.3;75.7
78514;SHT31;67814;51.976;5.810;2023-04-16T04:59:37;11.3;75.6
78514;SHT31;67814;51.976;5.810;2023-04-16T05:02:07;11.3;75.6
78514;SHT31;67814;51.976;5.810;2023-04-16T05:04:36;11.3;75.5
78514;SHT31;67814;51.976;5.810;2023-04-16T05:07:06;11.3;75.5
78514;SHT31;67814;51.976;5.810;2023-04-16T05:09:35;11.3;75.6
78514;SHT31;67814;51.976;5.810;2023-04-16T05:12:05;11.3;75.5
78514;SHT31;67814;51.976;5.810;2023-04-16T05:14:35;11.3;75.5
78514;SHT31;67814;51.976;5.810;2023-04-16T05:17:04;11.3;75.5
78514;SHT31;67814;51.976;5.810;2023-04-16T05:19:34;11.3;75.3
78514;SHT31;67814;51.976;5.810;2023-04-16T05:22:03;11.3;75.4
78514;SHT31;67814;51.976;5.810;2023-04-16T05:24:33;11.3;75.4
78514;SHT31;67814;51.976;5.810;2023-04-16T05:27:04;11.3;75.5
78514;SHT31;67814;51.976;5.810;2023-04-16T05:29:34;11.3;75.9
78514;SHT31;67814;51.976;5.810;2023-04-16T05:32:04;11.3;75.8
78514;SHT31;67814;51.976;5.810;2023-04-16T05:34:33;11.3;75.7
78514;SHT31;67814;51.976;5.810;2023-04-16T05:37:03;11.3;75.3
78514;SHT31;67814;51.976;5.810;2023-04-16T05:39:33;11.3;75.2
78514;SHT31;67814;51.976;5.810;2023-04-16T05:42:02;11.3;75.1
78514;SHT31;67814;51.976;5.810;2023-04-16T05:44:32;11.3;74.9
78514;SHT31;67814;51.976;5.810;2023-04-16T05:47:02;11.3;75.1
78514;SHT31;67814;51.976;5.810;2023-04-16T05:49:33;11.2;75.2
78514;SHT31;67814;51.976;5.810;2023-04-16T05:52:04;11.2;75.3
78514;SHT31;67814;51.976;5.810;2023-04-16T05:54:33;11.2;75.3
78514;SHT31;67814;51.976;5.810;2023-04-16T05:57:03;11.2;75.0
78514;SHT31;67814;51.976;5.810;2023-04-16T05:59:32;11.2;75.0
78514;SHT31;67814;51.976;5.810;2023-04-16T06:02:02;11.3;75.2
78514;SHT31;67814;51.976;5.810;2023-04-16T06:04:34;11.3;75.1
78514;SHT31;67814;51.976;5.810;2023-04-16T06:07:04;11.3;74.8
78514;SHT31;67814;51.976;5.810;2023-04-16T06:09:35;11.4;74.7
78514;SHT31;67814;51.976;5.810;2023-04-16T06:12:05;11.4;74.5
78514;SHT31;67814;51.976;5.810;2023-04-16T06:14:34;11.4;74.4
78514;SHT31;67814;51.976;5.810;2023-04-16T06:17:04;11.4;74.2
78514;SHT31;67814;51.976;5.810;2023-04-16T06:19:33;11.5;74.0
78514;SHT31;67814;51.976;5.810;2023-04-16T06:22:03;11.5;74.0
78514;SHT31;67814;51.976;5.810;2023-04-16T06:24:33;11.5;73.9
78514;SHT31;67814;51.976;5.810;2023-04-16T06:27:03;11.5;73.9
78514;SHT31;67814;51.976;5.810;2023-04-16T06:29:32;11.5;73.9
78514;SHT31;67814;51.976;5.810;2023-04-16T06:32:02;11.5;73.7
78514;SHT31;67814;51.976;5.810;2023-04-16T06:34:32;11.5;74.1
78514;SHT31;67814;51.976;5.810;2023-04-16T06:37:01;11.5;74.1
78514;SHT31;67814;51.976;5.810;2023-04-16T06:39:31;11.5;73.7
78514;SHT31;67814;51.976;5.810;2023-04-16T06:42:01;11.6;73.4
78514;SHT31;67814;51.976;5.810;2023-04-16T06:44:31;11.6;73.2
78514;SHT31;67814;51.976;5.810;2023-04-16T06:47:00;11.6;73.0
78514;SHT31;67814;51.976;5.810;2023-04-16T06:49:30;11.6;73.1
78514;SHT31;67814;51.976;5.810;2023-04-16T06:51:59;11.6;73.2
78514;SHT31;67814;51.976;5.810;2023-04-16T06:54:29;11.6;73.4
78514;SHT31;67814;51.976;5.810;2023-04-16T06:56:58;11.6;73.5
78514;SHT31;67814;51.976;5.810;2023-04-16T06:59:28;11.6;73.5
78514;SHT31;67814;51.976;5.810;2023-04-16T07:01:57;11.7;73.5
78514;SHT31;67814;51.976;5.810;2023-04-16T07:04:27;11.7;73.3
78514;SHT31;67814;51.976;5.810;2023-04-16T07:06:57;11.8;73.1
78514;SHT31;67814;51.976;5.810;2023-04-16T07:09:26;11.8;72.7
78514;SHT31;67814;51.976;5.810;2023-04-16T07:11:56;11.9;72.7
78514;SHT31;67814;51.976;5.810;2023-04-16T07:14:26;11.9;72.6
78514;SHT31;67814;51.976;5.810;2023-04-16T07:16:55;12.0;72.2
78514;SHT31;67814;51.976;5.810;2023-04-16T07:19:25;12.0;72.0
78514;SHT31;67814;51.976;5.810;2023-04-16T07:21:59;12.0;71.9
78514;SHT31;67814;51.976;5.810;2023-04-16T07:24:28;12.1;71.6
78514;SHT31;67814;51.976;5.810;2023-04-16T07:27:00;12.1;71.6
78514;SHT31;67814;51.976;5.810;2023-04-16T07:29:30;12.1;71.4
78514;SHT31;67814;51.976;5.810;2023-04-16T07:32:01;12.1;71.4
78514;SHT31;67814;51.976;5.810;2023-04-16T07:34:31;12.1;71.6
78514;SHT31;67814;51.976;5.810;2023-04-16T07:37:01;12.1;71.7
78514;SHT31;67814;51.976;5.810;2023-04-16T07:39:30;12.1;71.9
78514;SHT31;67814;51.976;5.810;2023-04-16T07:42:00;12.1;71.6
78514;SHT31;67814;51.976;5.810;2023-04-16T07:44:30;12.1;71.4
78514;SHT31;67814;51.976;5.810;2023-04-16T07:46:59;12.2;71.4
78514;SHT31;67814;51.976;5.810;2023-04-16T07:49:29;12.2;71.4
78514;SHT31;67814;51.976;5.810;2023-04-16T07:52:01;12.3;71.4
78514;SHT31;67814;51.976;5.810;2023-04-16T07:54:30;12.3;71.1
78514;SHT31;67814;51.976;5.810;2023-04-16T07:57:01;12.4;70.9
78514;SHT31;67814;51.976;5.810;2023-04-16T07:59:30;12.4;70.7
78514;SHT31;67814;51.976;5.810;2023-04-16T08:02:00;12.4;70.6
78514;SHT31;67814;51.976;5.810;2023-04-16T08:04:30;12.4;70.4
78514;SHT31;67814;51.976;5.810;2023-04-16T08:07:01;12.4;70.7
78514;SHT31;67814;51.976;5.810;2023-04-16T08:09:31;12.4;70.8
78514;SHT31;67814;51.976;5.810;2023-04-16T08:12:02;12.4;70.8
78514;SHT31;67814;51.976;5.810;2023-04-16T08:14:32;12.5;70.2
78514;SHT31;67814;51.976;5.810;2023-04-16T08:17:01;12.5;70.5
78514;SHT31;67814;51.976;5.810;2023-04-16T08:19:31;12.5;70.6
78514;SHT31;67814;51.976;5.810;2023-04-16T08:22:00;12.5;70.2
78514;SHT31;67814;51.976;5.810;2023-04-16T08:24:30;12.5;70.7
78514;SHT31;67814;51.976;5.810;2023-04-16T08:27:00;12.6;70.1
78514;SHT31;67814;51.976;5.810;2023-04-16T08:29:31;12.6;69.7
78514;SHT31;67814;51.976;5.810;2023-04-16T08:32:00;12.6;69.6
78514;SHT31;67814;51.976;5.810;2023-04-16T08:34:30;12.7;69.8
78514;SHT31;67814;51.976;5.810;2023-04-16T08:37:00;12.7;69.8
78514;SHT31;67814;51.976;5.810;2023-04-16T08:39:29;12.7;69.1
78514;SHT31;67814;51.976;5.810;2023-04-16T08:42:01;12.8;69.1
78514;SHT31;67814;51.976;5.810;2023-04-16T08:44:35;12.8;68.8
78514;SHT31;67814;51.976;5.810;2023-04-16T08:47:08;12.8;69.3
78514;SHT31;67814;51.976;5.810;2023-04-16T08:49:43;12.8;69.1
78514;SHT31;67814;51.976;5.810;2023-04-16T08:52:17;12.8;69.0
78514;SHT31;67814;51.976;5.810;2023-04-16T08:54:58;12.8;69.0
78514;SHT31;67814;51.976;5.810;2023-04-16T08:57:38;12.8;69.0
78514;SHT31;67814;51.976;5.810;2023-04-16T09:00:11;12.9;69.0
78514;SHT31;67814;51.976;5.810;2023-04-16T09:02:41;12.9;68.7
78514;SHT31;67814;51.976;5.810;2023-04-16T09:05:14;13.0;68.4
78514;SHT31;67814;51.976;5.810;2023-04-16T09:07:46;13.0;68.5
78514;SHT31;67814;51.976;5.810;2023-04-16T09:10:16;13.0;68.6
78514;SHT31;67814;51.976;5.810;2023-04-16T09:12:47;13.1;68.1
78514;SHT31;67814;51.976;5.810;2023-04-16T09:15:21;13.2;67.4
78514;SHT31;67814;51.976;5.810;2023-04-16T09:17:52;13.2;67.1
78514;SHT31;67814;51.976;5.810;2023-04-16T09:20:23;13.2;67.4
78514;SHT31;67814;51.976;5.810;2023-04-16T09:22:53;13.3;67.8
78514;SHT31;67814;51.976;5.810;2023-04-16T09:25:24;13.3;67.5
78514;SHT31;67814;51.976;5.810;2023-04-16T09:27:54;13.4;66.6
78514;SHT31;67814;51.976;5.810;2023-04-16T09:30:25;13.5;67.2
78514;SHT31;67814;51.976;5.810;2023-04-16T09:33:14;13.6;66.3
78514;SHT31;67814;51.976;5.810;2023-04-16T09:35:49;13.7;66.4
78514;SHT31;67814;51.976;5.810;2023-04-16T09:38:19;13.8;64.9
78514;SHT31;67814;51.976;5.810;2023-04-16T09:41:06;13.8;65.2
78514;SHT31;67814;51.976;5.810;2023-04-16T09:43:39;13.9;64.8
78514;SHT31;67814;51.976;5.810;2023-04-16T09:46:10;13.9;64.2
78514;SHT31;67814;51.976;5.810;2023-04-16T09:48:40;14.0;64.1
78514;SHT31;67814;51.976;5.810;2023-04-16T09:51:09;14.0;63.3
78514;SHT31;67814;51.976;5.810;2023-04-16T09:53:39;14.0;63.7
78514;SHT31;67814;51.976;5.810;2023-04-16T09:56:11;14.1;63.0
78514;SHT31;67814;51.976;5.810;2023-04-16T09:58:41;14.1;62.8
78514;SHT31;67814;51.976;5.810;2023-04-16T10:01:12;14.1;63.0
78514;SHT31;67814;51.976;5.810;2023-04-16T10:03:43;14.1;62.9
78514;SHT31;67814;51.976;5.810;2023-04-16T10:06:20;14.2;63.4
78514;SHT31;67814;51.976;5.810;2023-04-16T10:08:53;14.2;63.0
78514;SHT31;67814;51.976;5.810;2023-04-16T10:11:23;14.3;62.4
78514;SHT31;67814;51.976;5.810;2023-04-16T10:13:53;14.3;62.6
78514;SHT31;67814;51.976;5.810;2023-04-16T10:16:23;14.3;63.0
78514;SHT31;67814;51.976;5.810;2023-04-16T10:18:53;14.3;62.7
78514;SHT31;67814;51.976;5.810;2023-04-16T10:21:22;14.4;62.3
78514;SHT31;67814;51.976;5.810;2023-04-16T10:23:57;14.4;62.3
78514;SHT31;67814;51.976;5.810;2023-04-16T10:26:28;14.4;62.5
78514;SHT31;67814;51.976;5.810;2023-04-16T10:28:59;14.4;63.2
78514;SHT31;67814;51.976;5.810;2023-04-16T10:31:30;14.5;62.0
78514;SHT31;67814;51.976;5.810;2023-04-16T10:34:01;14.6;61.4
78514;SHT31;67814;51.976;5.810;2023-04-16T10:36:36;14.6;61.9
78514;SHT31;67814;51.976;5.810;2023-04-16T10:39:09;14.6;62.0
78514;SHT31;67814;51.976;5.810;2023-04-16T10:41:41;14.7;61.0
78514;SHT31;67814;51.976;5.810;2023-04-16T10:44:11;14.8;60.6
78514;SHT31;67814;51.976;5.810;2023-04-16T10:46:42;14.8;60.6
78514;SHT31;67814;51.976;5.810;2023-04-16T10:49:17;14.9;60.8
78514;SHT31;67814;51.976;5.810;2023-04-16T10:51:55;14.9;60.5
78514;SHT31;67814;51.976;5.810;2023-04-16T10:54:27;15.0;60.7
78514;SHT31;67814;51.976;5.810;2023-04-16T10:56:58;15.1;59.9
78514;SHT31;67814;51.976;5.810;2023-04-16T10:59:32;15.1;60.8
78514;SHT31;67814;51.976;5.810;2023-04-16T11:02:07;15.2;60.0
78514;SHT31;67814;51.976;5.810;2023-04-16T11:04:41;15.4;59.7
78514;SHT31;67814;51.976;5.810;2023-04-16T11:07:17;15.4;59.2
78514;SHT31;67814;51.976;5.810;2023-04-16T11:09:55;15.5;58.6
78514;SHT31;67814;51.976;5.810;2023-04-16T11:12:34;15.6;58.0
78514;SHT31;67814;51.976;5.810;2023-04-16T11:15:05;15.6;58.3
78514;SHT31;67814;51.976;5.810;2023-04-16T11:17:39;15.6;57.7
78514;SHT31;67814;51.976;5.810;2023-04-16T11:20:14;15.7;57.1
78514;SHT31;67814;51.976;5.810;2023-04-16T11:22:45;15.7;57.8
78514;SHT31;67814;51.976;5.810;2023-04-16T11:25:18;15.7;59.7
78514;SHT31;67814;51.976;5.810;2023-04-16T11:27:48;15.8;57.9
78514;SHT31;67814;51.976;5.810;2023-04-16T11:30:32;15.9;57.2
78514;SHT31;67814;51.976;5.810;2023-04-16T11:33:03;16.1;56.7
78514;SHT31;67814;51.976;5.810;2023-04-16T11:35:33;16.2;56.3
78514;SHT31;67814;51.976;5.810;2023-04-16T11:38:02;16.2;56.5
78514;SHT31;67814;51.976;5.810;2023-04-16T11:40:33;16.3;55.6
78514;SHT31;67814;51.976;5.810;2023-04-16T11:43:11;16.3;55.5
78514;SHT31;67814;51.976;5.810;2023-04-16T11:45:39;16.3;55.6
78514;SHT31;67814;51.976;5.810;2023-04-16T11:48:09;16.3;55.5
78514;SHT31;67814;51.976;5.810;2023-04-16T11:50:39;16.3;55.2
78514;SHT31;67814;51.976;5.810;2023-04-16T11:53:08;16.3;55.1
78514;SHT31;67814;51.976;5.810;2023-04-16T11:55:43;16.3;55.2
78514;SHT31;67814;51.976;5.810;2023-04-16T11:58:14;16.4;55.7
78514;SHT31;67814;51.976;5.810;2023-04-16T12:00:45;16.4;55.0
78514;SHT31;67814;51.976;5.810;2023-04-16T12:03:16;16.4;55.2
78514;SHT31;67814;51.976;5.810;2023-04-16T12:05:45;16.4;56.6
78514;SHT31;67814;51.976;5.810;2023-04-16T12:08:28;16.4;55.2
78514;SHT31;67814;51.976;5.810;2023-04-16T12:10:59;16.5;55.1
78514;SHT31;67814;51.976;5.810;2023-04-16T12:13:29;16.5;55.0
78514;SHT31;67814;51.976;5.810;2023-04-16T12:16:17;16.5;54.9
78514;SHT31;67814;51.976;5.810;2023-04-16T12:19:01;16.5;55.2
78514;SHT31;67814;51.976;5.810;2023-04-16T12:21:39;16.5;55.2
78514;SHT31;67814;51.976;5.810;2023-04-16T12:24:11;16.6;54.7
78514;SHT31;67814;51.976;5.810;2023-04-16T12:26:43;16.6;55.7
78514;SHT31;67814;51.976;5.810;2023-04-16T12:29:19;16.6;55.3
78514;SHT31;67814;51.976;5.810;2023-04-16T12:31:50;16.6;55.3
78514;SHT31;67814;51.976;5.810;2023-04-16T12:34:21;16.5;55.8
78514;SHT31;67814;51.976;5.810;2023-04-16T12:37:06;16.5;56.7
78514;SHT31;67814;51.976;5.810;2023-04-16T12:39:37;16.5;56.1
78514;SHT31;67814;51.976;5.810;2023-04-16T12:42:07;16.6;56.1
78514;SHT31;67814;51.976;5.810;2023-04-16T12:44:37;16.6;56.0
78514;SHT31;67814;51.976;5.810;2023-04-16T12:47:09;16.6;56.8
78514;SHT31;67814;51.976;5.810;2023-04-16T12:49:39;16.6;56.4
78514;SHT31;67814;51.976;5.810;2023-04-16T12:52:08;16.5;57.0
78514;SHT31;67814;51.976;5.810;2023-04-16T12:54:38;16.5;56.3
78514;SHT31;67814;51.976;5.810;2023-04-16T12:57:08;16.5;56.7
78514;SHT31;67814;51.976;5.810;2023-04-16T12:59:38;16.6;55.5
78514;SHT31;67814;51.976;5.810;2023-04-16T13:02:07;16.6;55.4
78514;SHT31;67814;51.976;5.810;2023-04-16T13:04:37;16.5;55.4
78514;SHT31;67814;51.976;5.810;2023-04-16T13:07:07;16.4;56.2
78514;SHT31;67814;51.976;5.810;2023-04-16T13:09:37;16.4;55.9
78514;SHT31;67814;51.976;5.810;2023-04-16T13:12:07;16.3;56.8
78514;SHT31;67814;51.976;5.810;2023-04-16T13:14:38;16.3;56.6
78514;SHT31;67814;51.976;5.810;2023-04-16T13:17:08;16.3;56.6
78514;SHT31;67814;51.976;5.810;2023-04-16T13:19:37;16.3;57.2
78514;SHT31;67814;51.976;5.810;2023-04-16T13:22:07;16.3;57.7
78514;SHT31;67814;51.976;5.810;2023-04-16T13:24:37;16.3;57.1
78514;SHT31;67814;51.976;5.810;2023-04-16T13:27:07;16.3;56.7
78514;SHT31;67814;51.976;5.810;2023-04-16T13:29:37;16.3;56.8
78514;SHT31;67814;51.976;5.810;2023-04-16T13:32:07;16.3;56.1
78514;SHT31;67814;51.976;5.810;2023-04-16T13:34:40;16.2;56.6
78514;SHT31;67814;51.976;5.810;2023-04-16T13:37:09;16.2;57.0
78514;SHT31;67814;51.976;5.810;2023-04-16T13:39:39;16.1;57.2
78514;SHT31;67814;51.976;5.810;2023-04-16T13:42:09;16.0;57.6
78514;SHT31;67814;51.976;5.810;2023-04-16T13:44:38;15.9;58.6
78514;SHT31;67814;51.976;5.810;2023-04-16T13:47:08;15.9;57.7
78514;SHT31;67814;51.976;5.810;2023-04-16T13:49:37;15.9;57.4
78514;SHT31;67814;51.976;5.810;2023-04-16T13:52:07;15.9;58.0
78514;SHT31;67814;51.976;5.810;2023-04-16T13:54:37;15.9;58.3
78514;SHT31;67814;51.976;5.810;2023-04-16T13:57:07;15.9;58.9
78514;SHT31;67814;51.976;5.810;2023-04-16T13:59:36;16.0;57.7
78514;SHT31;67814;51.976;5.810;2023-04-16T14:02:07;16.1;57.6
78514;SHT31;67814;51.976;5.810;2023-04-16T14:04:37;16.1;57.3
78514;SHT31;67814;51.976;5.810;2023-04-16T14:07:07;16.0;56.9
78514;SHT31;67814;51.976;5.810;2023-04-16T14:09:37;16.0;57.6
78514;SHT31;67814;51.976;5.810;2023-04-16T14:12:07;16.0;57.2
78514;SHT31;67814;51.976;5.810;2023-04-16T14:14:37;15.9;56.7
78514;SHT31;67814;51.976;5.810;2023-04-16T14:17:07;15.8;56.7
78514;SHT31;67814;51.976;5.810;2023-04-16T14:19:37;15.8;56.8
78514;SHT31;67814;51.976;5.810;2023-04-16T14:22:06;15.7;56.7
78514;SHT31;67814;51.976;5.810;2023-04-16T14:24:36;15.6;57.6
78514;SHT31;67814;51.976;5.810;2023-04-16T14:27:05;15.5;57.9
78514;SHT31;67814;51.976;5.810;2023-04-16T14:29:38;15.4;58.4
78514;SHT31;67814;51.976;5.810;2023-04-16T14:32:08;15.3;58.2
78514;SHT31;67814;51.976;5.810;2023-04-16T14:34:37;15.3;58.5
78514;SHT31;67814;51.976;5.810;2023-04-16T14:37:07;15.2;59.9
78514;SHT31;67814;51.976;5.810;2023-04-16T14:39:37;15.2;58.8
78514;SHT31;67814;51.976;5.810;2023-04-16T14:42:07;15.2;59.4
78514;SHT31;67814;51.976;5.810;2023-04-16T14:44:37;15.2;59.6
78514;SHT31;67814;51.976;5.810;2023-04-16T14:47:06;15.2;59.6
78514;SHT31;67814;51.976;5.810;2023-04-16T14:49:36;15.2;59.5
78514;SHT31;67814;51.976;5.810;2023-04-16T14:52:08;15.2;60.4
78514;SHT31;67814;51.976;5.810;2023-04-16T14:54:40;15.2;59.9
78514;SHT31;67814;51.976;5.810;2023-04-16T14:57:09;15.3;59.6
78514;SHT31;67814;51.976;5.810;2023-04-16T14:59:39;15.3;60.2
78514;SHT31;67814;51.976;5.810;2023-04-16T15:02:08;15.3;59.1
78514;SHT31;67814;51.976;5.810;2023-04-16T15:04:40;15.3;58.8
78514;SHT31;67814;51.976;5.810;2023-04-16T15:07:10;15.3;58.8
78514;SHT31;67814;51.976;5.810;2023-04-16T15:09:39;15.3;58.2
78514;SHT31;67814;51.976;5.810;2023-04-16T15:12:09;15.3;59.3
78514;SHT31;67814;51.976;5.810;2023-04-16T15:14:39;15.3;59.1
78514;SHT31;67814;51.976;5.810;2023-04-16T15:17:09;15.4;58.7
78514;SHT31;67814;51.976;5.810;2023-04-16T15:19:39;15.4;58.3
78514;SHT31;67814;51.976;5.810;2023-04-16T15:22:09;15.4;58.5
78514;SHT31;67814;51.976;5.810;2023-04-16T15:24:39;15.4;59.0
78514;SHT31;67814;51.976;5.810;2023-04-16T15:27:08;15.3;59.3
78514;SHT31;67814;51.976;5.810;2023-04-16T15:29:40;15.3;60.2
78514;SHT31;67814;51.976;5.810;2023-04-16T15:32:13;15.3;59.3
78514;SHT31;67814;51.976;5.810;2023-04-16T15:34:43;15.4;58.9
78514;SHT31;67814;51.976;5.810;2023-04-16T15:37:14;15.4;58.7
78514;SHT31;67814;51.976;5.810;2023-04-16T15:39:46;15.3;59.2
78514;SHT31;67814;51.976;5.810;2023-04-16T15:42:16;15.3;59.6
78514;SHT31;67814;51.976;5.810;2023-04-16T15:44:46;15.3;59.9
78514;SHT31;67814;51.976;5.810;2023-04-16T15:47:17;15.3;59.6
78514;SHT31;67814;51.976;5.810;2023-04-16T15:49:47;15.3;59.6
78514;SHT31;67814;51.976;5.810;2023-04-16T15:52:18;15.3;59.6
78514;SHT31;67814;51.976;5.810;2023-04-16T15:54:48;15.3;60.0
78514;SHT31;67814;51.976;5.810;2023-04-16T15:57:18;15.3;59.8
78514;SHT31;67814;51.976;5.810;2023-04-16T15:59:47;15.2;60.3
78514;SHT31;67814;51.976;5.810;2023-04-16T16:02:17;15.3;60.2
78514;SHT31;67814;51.976;5.810;2023-04-16T16:04:47;15.3;60.2
78514;SHT31;67814;51.976;5.810;2023-04-16T16:07:17;15.3;60.3
78514;SHT31;67814;51.976;5.810;2023-04-16T16:09:47;15.3;60.5
78514;SHT31;67814;51.976;5.810;2023-04-16T16:12:18;15.3;61.3
78514;SHT31;67814;51.976;5.810;2023-04-16T16:14:47;15.3;60.2
78514;SHT31;67814;51.976;5.810;2023-04-16T16:17:17;15.3;60.1
78514;SHT31;67814;51.976;5.810;2023-04-16T16:19:48;15.2;59.2
78514;SHT31;67814;51.976;5.810;2023-04-16T16:22:18;15.2;59.5
78514;SHT31;67814;51.976;5.810;2023-04-16T16:24:51;15.2;59.3